Time;durP1;ratioP1;P1;durP2;ratioP2;P2;SDS_P1;SDS_P2;PMS_P1;PMS_P2;Temp;Humidity;BMP_temperature;BMP_pressure;BME280_temperature;BME280_humidity;BME280_pressure;Samples;Min_cycle;Max_cycle;Signal;HPM_P1;HPM_P2
2022/05/14 00:01:13;;;;;;;20.33;13.00;;;18.90;99.90;;;;;;5093196;28;20179;-69
2022/05/14 00:03:42;;;;;;;16.77;11.67;;;18.90;99.90;;;;;;5093041;28;20548;-69
2022/05/14 00:06:21;;;;;;;16.17;10.40;;;18.90;99.90;;;;;;5093171;28;20203;-69
2022/05/14 00:08:48;;;;;;;18.20;11.10;;;19.00;99.90;;;;;;5093023;28;20175;-70
2022/05/14 00:14:03;;;;;;;16.57;10.53;;;19.30;99.90;;;;;;5093742;28;20213;-69
2022/05/14 00:16:32;;;;;;;12.83;9.33;;;19.40;99.90;;;;;;5093117;28;20210;-69
2022/05/14 00:19:01;;;;;;;13.83;9.60;;;19.40;99.90;;;;;;5093249;28;20171;-69
2022/05/14 00:21:29;;;;;;;17.30;10.40;;;19.50;99.90;;;;;;5091913;28;20216;-68
2022/05/14 00:23:58;;;;;;;16.93;10.20;;;19.40;99.90;;;;;;5093348;28;20175;-69
2022/05/14 00:26:26;;;;;;;15.00;9.93;;;19.40;99.90;;;;;;5093006;28;20648;-70
2022/05/14 00:28:53;;;;;;;16.93;9.57;;;19.40;99.90;;;;;;5093225;28;20287;-70
2022/05/14 00:31:21;;;;;;;16.40;10.87;;;19.40;99.90;;;;;;5097053;28;20266;-69
2022/05/14 00:33:48;;;;;;;12.87;10.30;;;19.50;99.90;;;;;;5097067;28;20176;-69
2022/05/14 00:36:16;;;;;;;15.50;10.50;;;19.50;99.90;;;;;;5097203;28;20210;-69
2022/05/14 00:38:43;;;;;;;16.03;11.10;;;19.50;99.90;;;;;;5097139;28;20179;-69
2022/05/14 00:41:11;;;;;;;16.57;11.17;;;19.50;99.90;;;;;;5098425;28;20626;-70
2022/05/14 00:44:08;;;;;;;13.57;11.17;;;19.50;99.90;;;;;;5102650;28;20255;-69
2022/05/14 00:46:48;;;;;;;16.17;10.97;;;19.60;99.90;;;;;;5100118;28;20191;-70
2022/05/14 00:49:19;;;;;;;16.80;10.70;;;19.70;99.90;;;;;;5102130;28;20637;-69
2022/05/14 00:51:47;;;;;;;15.77;9.70;;;19.80;99.90;;;;;;5097071;28;20181;-70
2022/05/14 00:54:19;;;;;;;13.60;10.40;;;19.70;99.90;;;;;;5096660;28;20258;-70
2022/05/14 00:56:57;;;;;;;14.63;9.57;;;19.70;99.90;;;;;;5096348;28;20293;-70
2022/05/14 00:59:27;;;;;;;12.57;9.77;;;19.80;99.90;;;;;;5096563;28;20163;-70
2022/05/14 01:01:56;;;;;;;13.87;9.33;;;20.00;99.90;;;;;;5096830;28;20176;-67
2022/05/14 01:04:24;;;;;;;13.87;9.30;;;20.00;99.90;;;;;;5096561;28;20187;-69
2022/05/14 01:07:11;;;;;;;16.70;10.57;;;20.10;99.90;;;;;;5096805;28;20186;-68
2022/05/14 01:09:41;;;;;;;12.50;9.80;;;20.30;99.90;;;;;;5096420;28;20723;-69
2022/05/14 01:12:09;;;;;;;13.17;11.10;;;20.30;99.90;;;;;;5096519;28;20173;-70
2022/05/14 01:14:36;;;;;;;15.10;12.43;;;20.40;99.90;;;;;;5095157;28;20293;-69
2022/05/14 01:17:06;;;;;;;19.63;14.67;;;20.60;99.90;;;;;;5094991;28;20538;-69
2022/05/14 01:19:33;;;;;;;20.27;14.90;;;20.90;99.90;;;;;;5096168;28;20652;-70
2022/05/14 01:22:22;;;;;;;15.30;12.80;;;21.20;99.90;;;;;;5094606;28;20645;-69
2022/05/14 01:27:46;;;;;;;12.67;10.93;;;21.30;99.90;;;;;;5096146;28;20206;-70
2022/05/14 01:30:14;;;;;;;10.90;9.13;;;21.50;99.90;;;;;;5096017;28;20171;-71
2022/05/14 01:32:41;;;;;;;12.63;8.33;;;21.80;99.90;;;;;;5095552;28;20592;-70
2022/05/14 01:35:09;;;;;;;10.33;8.37;;;21.90;99.90;;;;;;5097662;28;20203;-69
2022/05/14 01:37:38;;;;;;;9.47;7.10;;;22.10;99.90;;;;;;5097762;28;20167;-69
2022/05/14 01:40:06;;;;;;;10.73;6.73;;;22.10;99.90;;;;;;5098473;28;20644;-69
2022/05/14 01:42:35;;;;;;;5.40;4.90;;;22.30;99.90;;;;;;5097236;28;20207;-68
2022/05/14 01:45:04;;;;;;;8.33;5.60;;;22.80;99.90;;;;;;5099702;28;20282;-70
2022/05/14 01:47:35;;;;;;;7.70;5.37;;;23.60;99.90;;;;;;5099952;28;20190;-69
2022/05/14 01:50:03;;;;;;;11.73;7.77;;;24.10;99.90;;;;;;5100095;28;20221;-70
2022/05/14 01:52:32;;;;;;;14.90;7.60;;;23.90;99.90;;;;;;5098163;28;20233;-68
2022/05/14 01:55:00;;;;;;;11.67;7.63;;;24.10;99.90;;;;;;5097610;28;20238;-69
2022/05/14 01:57:27;;;;;;;8.73;7.23;;;24.70;99.90;;;;;;5098850;28;20219;-69
2022/05/14 01:59:54;;;;;;;9.17;6.73;;;24.90;99.90;;;;;;5098523;28;20171;-70
2022/05/14 02:02:22;;;;;;;9.93;6.67;;;24.90;99.90;;;;;;5098235;28;20179;-70
2022/05/14 02:04:49;;;;;;;7.83;6.37;;;25.00;99.90;;;;;;5098091;28;20511;-69
2022/05/14 02:07:16;;;;;;;9.83;5.07;;;25.70;99.90;;;;;;5096546;28;20175;-69
2022/05/14 02:09:44;;;;;;;6.87;5.80;;;26.10;99.90;;;;;;5097203;28;20207;-70
2022/05/14 02:12:11;;;;;;;8.33;6.13;;;26.30;99.90;;;;;;5098115;28;20229;-70
2022/05/14 02:14:40;;;;;;;12.53;6.17;;;26.30;99.90;;;;;;5098401;28;20179;-69
2022/05/14 02:17:12;;;;;;;8.23;6.00;;;26.40;99.90;;;;;;5098516;28;20206;-69
2022/05/14 02:19:39;;;;;;;9.87;5.47;;;26.60;99.90;;;;;;5098524;28;20667;-69
2022/05/14 02:22:09;;;;;;;10.00;4.97;;;26.70;99.90;;;;;;5097702;28;20207;-69
2022/05/14 02:24:38;;;;;;;6.90;4.90;;;26.80;99.90;;;;;;5098242;28;20174;-69
2022/05/14 02:27:06;;;;;;;7.00;4.47;;;26.90;99.90;;;;;;5097731;28;20196;-70
2022/05/14 02:29:51;;;;;;;8.40;4.97;;;26.40;99.90;;;;;;5097910;28;20687;-70
2022/05/14 02:32:20;;;;;;;4.63;3.77;;;26.20;99.90;;;;;;5098312;28;20198;-69
2022/05/14 02:34:49;;;;;;;6.17;3.60;;;26.90;99.90;;;;;;5098556;28;20199;-70
2022/05/14 02:37:20;;;;;;;6.80;3.77;;;27.90;99.90;;;;;;5098650;28;20647;-69
2022/05/14 02:39:49;;;;;;;5.93;3.40;;;28.30;99.90;;;;;;5096565;28;20179;-70
2022/05/14 02:42:17;;;;;;;6.13;3.93;;;28.90;99.90;;;;;;5097348;28;20256;-70
2022/05/14 02:44:45;;;;;;;7.47;4.30;;;28.70;99.90;;;;;;5097437;28;20176;-70
2022/05/14 02:47:17;;;;;;;5.37;3.60;;;28.30;99.90;;;;;;5095237;28;20229;-69
2022/05/14 02:49:44;;;;;;;6.85;3.60;;;28.30;99.90;;;;;;5097496;28;20175;-69
2022/05/14 02:52:12;;;;;;;5.53;3.43;;;28.00;99.90;;;;;;5096878;28;20213;-69
2022/05/14 02:54:43;;;;;;;5.60;3.50;;;28.50;99.90;;;;;;5097283;28;20175;-69
2022/05/14 02:57:13;;;;;;;4.50;3.47;;;28.90;99.90;;;;;;5095668;28;20234;-69
2022/05/14 02:59:41;;;;;;;5.47;3.45;;;29.10;99.90;;;;;;5097387;28;20171;-69
2022/05/14 03:02:11;;;;;;;6.77;3.53;;;29.10;99.90;;;;;;5097371;28;20286;-70
2022/05/14 03:04:43;;;;;;;7.05;3.80;;;29.30;99.90;;;;;;5097437;28;20172;-69
2022/05/14 03:07:13;;;;;;;4.28;3.40;;;29.30;99.90;;;;;;5097566;28;20187;-69
2022/05/14 03:09:41;;;;;;;3.77;3.30;;;29.80;99.90;;;;;;5096953;28;20182;-69
2022/05/14 03:12:12;;;;;;;4.57;3.00;;;29.10;99.90;;;;;;5097161;28;20810;-69
2022/05/14 03:14:40;;;;;;;4.07;3.10;;;29.40;99.90;;;;;;5095646;28;20174;-69
2022/05/14 03:17:09;;;;;;;3.45;2.90;;;29.40;99.90;;;;;;5096720;28;20174;-68
2022/05/14 03:19:36;;;;;;;4.87;3.03;;;29.30;99.90;;;;;;5096850;28;20670;-69
2022/05/14 03:22:05;;;;;;;5.10;3.53;;;29.30;99.90;;;;;;5096164;28;20199;-68
2022/05/14 03:24:36;;;;;;;5.73;3.10;;;29.30;99.90;;;;;;5096602;28;20182;-69
2022/05/14 03:27:05;;;;;;;5.15;2.88;;;29.60;99.90;;;;;;5095091;28;20175;-68
2022/05/14 03:29:33;;;;;;;8.00;3.60;;;30.00;99.90;;;;;;5096489;28;20599;-68
2022/05/14 03:32:00;;;;;;;4.30;3.60;;;29.40;99.90;;;;;;5095297;28;20171;-68
2022/05/14 03:34:28;;;;;;;5.07;3.67;;;29.00;99.90;;;;;;5096605;28;20220;-69
2022/05/14 03:36:55;;;;;;;3.95;3.47;;;28.90;99.90;;;;;;5095505;28;20254;-70
2022/05/14 03:39:22;;;;;;;8.00;3.80;;;29.20;99.90;;;;;;5095576;28;20179;-68
2022/05/14 03:41:56;;;;;;;6.35;3.60;;;28.90;99.90;;;;;;5096418;28;20187;-68
2022/05/14 03:44:25;;;;;;;4.50;3.33;;;28.80;99.90;;;;;;5096333;28;20577;-68
2022/05/14 03:46:53;;;;;;;4.47;3.63;;;28.60;99.90;;;;;;5096799;28;20252;-69
2022/05/14 03:49:23;;;;;;;7.22;4.07;;;28.90;99.90;;;;;;5096870;28;20167;-69
2022/05/14 03:51:52;;;;;;;6.13;3.53;;;29.20;99.90;;;;;;5096935;28;20171;-70
2022/05/14 03:54:20;;;;;;;5.93;3.50;;;29.70;99.90;;;;;;5096210;28;20211;-68
2022/05/14 03:56:48;;;;;;;5.43;3.70;;;29.90;99.90;;;;;;5096022;28;20222;-69
2022/05/14 03:59:16;;;;;;;4.28;3.83;;;29.70;99.90;;;;;;5095854;28;20604;-69
2022/05/14 04:01:44;;;;;;;6.67;3.50;;;29.90;99.90;;;;;;5094848;28;20183;-68
2022/05/14 04:04:11;;;;;;;4.22;3.53;;;29.80;99.90;;;;;;5095344;28;20220;-68
2022/05/14 04:06:38;;;;;;;4.13;3.72;;;29.80;99.90;;;;;;5095014;28;20183;-68
2022/05/14 04:09:11;;;;;;;4.55;3.58;;;29.60;99.90;;;;;;5099154;28;20179;-69
2022/05/14 04:11:42;;;;;;;5.82;3.70;;;29.60;99.90;;;;;;5096045;28;20175;-68
2022/05/14 04:14:11;;;;;;;4.20;3.53;;;29.80;99.90;;;;;;5096856;28;20586;-69
2022/05/14 04:16:39;;;;;;;6.05;3.33;;;30.30;99.90;;;;;;5095484;28;20564;-69
2022/05/14 04:19:07;;;;;;;3.60;3.28;;;30.40;99.90;;;;;;5095602;28;20183;-70
2022/05/14 04:21:37;;;;;;;4.97;3.13;;;30.30;99.90;;;;;;5097011;28;20575;-69
2022/05/14 04:24:09;;;;;;;4.78;3.60;;;30.30;99.90;;;;;;5096321;28;20224;-70
2022/05/14 04:26:38;;;;;;;4.95;3.72;;;29.30;99.90;;;;;;5096821;28;20578;-69
2022/05/14 04:29:05;;;;;;;6.40;3.70;;;28.60;99.90;;;;;;5096613;28;20175;-70
2022/05/14 04:31:33;;;;;;;4.45;3.38;;;28.80;99.90;;;;;;5096913;28;20232;-70
2022/05/14 04:34:03;;;;;;;5.38;3.75;;;29.30;99.90;;;;;;5096356;28;20187;-70
2022/05/14 04:36:33;;;;;;;4.47;3.50;;;29.30;99.90;;;;;;5095999;28;20218;-71
2022/05/14 04:39:04;;;;;;;7.83;3.50;;;29.30;99.90;;;;;;5095893;28;20582;-69
2022/05/14 04:41:33;;;;;;;7.20;3.40;;;29.10;99.90;;;;;;5095790;28;20175;-69
2022/05/14 04:44:05;;;;;;;9.80;3.50;;;28.40;99.90;;;;;;5099713;28;20659;-69
2022/05/14 04:46:36;;;;;;;3.33;3.03;;;28.40;99.90;;;;;;5103507;28;20202;-70
2022/05/14 04:49:05;;;;;;;4.67;3.67;;;28.50;99.90;;;;;;5100083;28;20547;-70
2022/05/14 04:51:33;;;;;;;8.13;4.00;;;28.90;99.90;;;;;;5093524;28;20258;-69
2022/05/14 04:54:00;;;;;;;5.93;3.67;;;29.10;99.90;;;;;;5096584;28;20649;-70
2022/05/14 04:56:28;;;;;;;3.80;3.47;;;28.80;99.90;;;;;;5095657;28;20219;-68
2022/05/14 04:58:59;;;;;;;5.97;3.70;;;28.50;99.90;;;;;;5095395;28;20175;-68
2022/05/14 05:01:27;;;;;;;7.03;3.77;;;28.40;99.90;;;;;;5095493;28;20230;-69
2022/05/14 05:20:48;;;;;;;3.73;3.40;;;29.10;99.90;;;;;;5075331;28;20197;-66
2022/05/14 05:23:22;;;;;;;5.60;3.43;;;28.80;99.90;;;;;;5095437;28;20175;-68
2022/05/14 05:25:50;;;;;;;5.23;4.10;;;28.90;99.90;;;;;;5096146;28;20271;-67
2022/05/14 05:41:41;;;;;;;7.07;3.77;;;26.80;99.90;;;;;;5064368;28;20317;-69
2022/05/14 05:44:08;;;;;;;5.40;3.90;;;26.40;99.90;;;;;;5091667;28;20198;-68
2022/05/14 05:56:46;;;;;;;11.27;4.13;;;25.80;99.90;;;;;;4892987;28;4997495;-73
2022/05/14 05:59:15;;;;;;;8.27;4.37;;;26.00;99.90;;;;;;5092194;28;20246;-73
2022/05/14 06:01:43;;;;;;;5.17;3.77;;;26.10;99.90;;;;;;5093994;28;20183;-70
2022/05/14 06:04:11;;;;;;;8.90;4.60;;;26.00;99.90;;;;;;5094562;28;20274;-71
2022/05/14 06:06:42;;;;;;;7.70;4.10;;;25.80;99.90;;;;;;5079777;28;20271;-69
2022/05/14 06:09:13;;;;;;;8.57;4.87;;;25.70;99.90;;;;;;5085543;28;20275;-69
2022/05/14 06:11:44;;;;;;;8.10;4.67;;;25.50;99.90;;;;;;5074914;28;20171;-72
2022/05/14 06:14:12;;;;;;;5.93;4.63;;;25.40;99.90;;;;;;5074683;28;20188;-70
2022/05/14 06:16:40;;;;;;;6.27;4.90;;;25.20;99.90;;;;;;5094402;28;20249;-68
2022/05/14 06:19:08;;;;;;;6.43;4.53;;;25.10;99.90;;;;;;5095523;28;20191;-69
2022/05/14 06:21:38;;;;;;;8.40;4.40;;;25.10;99.90;;;;;;5095007;28;20220;-69
2022/05/14 06:24:08;;;;;;;8.83;4.47;;;25.00;99.90;;;;;;5096135;28;20207;-68
2022/05/14 06:26:37;;;;;;;7.00;4.07;;;25.00;99.90;;;;;;5095580;28;20276;-70
2022/05/14 06:29:05;;;;;;;10.30;4.87;;;24.90;99.90;;;;;;5094984;28;20286;-67
2022/05/14 06:31:33;;;;;;;6.70;5.07;;;24.70;99.90;;;;;;5093570;28;20183;-68
2022/05/14 06:34:04;;;;;;;8.00;5.53;;;24.60;99.90;;;;;;5093688;28;20190;-69
2022/05/14 06:36:32;;;;;;;8.53;5.57;;;24.50;99.90;;;;;;5096323;28;20424;-69
2022/05/14 06:39:00;;;;;;;8.83;5.27;;;24.40;99.90;;;;;;5096562;28;20183;-69
2022/05/14 06:44:50;;;;;;;12.23;6.37;;;24.10;99.90;;;;;;5095507;28;20182;-68
2022/05/14 06:47:17;;;;;;;9.43;5.80;;;24.00;99.90;;;;;;5096364;28;20266;-68
2022/05/14 06:49:45;;;;;;;11.57;5.77;;;23.80;99.90;;;;;;5094343;28;20183;-69
2022/05/14 06:52:19;;;;;;;8.03;5.73;;;23.70;99.90;;;;;;5093081;28;20262;-70
2022/05/14 06:55:00;;;;;;;8.73;4.87;;;23.50;99.90;;;;;;5093672;28;20341;-69
2022/05/14 06:57:30;;;;;;;9.60;6.17;;;23.40;99.90;;;;;;5086081;28;20250;-70
2022/05/14 06:59:58;;;;;;;10.47;5.10;;;23.30;99.90;;;;;;5094183;28;20266;-67
2022/05/14 07:02:31;;;;;;;9.90;5.87;;;23.20;99.90;;;;;;5093722;28;20187;-68
2022/05/14 07:07:46;;;;;;;11.47;7.20;;;23.00;99.90;;;;;;5093564;28;20209;-69
2022/05/14 07:10:13;;;;;;;13.37;9.27;;;22.80;99.90;;;;;;5092635;28;20222;-67
2022/05/14 07:12:41;;;;;;;12.63;8.33;;;22.70;99.90;;;;;;5093148;28;20251;-66
2022/05/14 07:15:11;;;;;;;12.60;8.30;;;22.60;99.90;;;;;;5093007;28;20715;-68
2022/05/14 07:17:41;;;;;;;11.23;7.63;;;22.60;99.90;;;;;;5092363;28;20294;-67
2022/05/14 07:20:17;;;;;;;12.80;8.63;;;22.50;99.90;;;;;;5092850;28;20182;-67
2022/05/14 07:22:46;;;;;;;12.83;8.47;;;22.40;99.90;;;;;;5092723;28;20592;-68
2022/05/14 07:25:14;;;;;;;12.47;7.33;;;22.30;99.90;;;;;;5092745;28;20266;-67
2022/05/14 07:27:42;;;;;;;9.57;7.03;;;22.20;99.90;;;;;;5091480;28;20198;-67
2022/05/14 07:30:10;;;;;;;10.07;7.57;;;22.20;99.90;;;;;;5092889;28;20297;-67
2022/05/14 07:32:38;;;;;;;8.50;6.83;;;22.10;99.90;;;;;;5092440;28;20179;-68
2022/05/14 07:35:06;;;;;;;10.53;6.83;;;22.00;99.90;;;;;;5091859;28;20218;-67
2022/05/14 07:37:39;;;;;;;11.80;6.70;;;22.00;99.90;;;;;;5093264;28;20554;-68
2022/05/14 07:40:11;;;;;;;8.00;5.97;;;21.90;99.90;;;;;;5093042;28;20187;-68
2022/05/14 07:42:49;;;;;;;10.07;6.97;;;21.80;99.90;;;;;;5093260;28;20185;-69
2022/05/14 07:45:23;;;;;;;9.90;6.60;;;21.70;99.90;;;;;;5092722;28;20178;-69
2022/05/14 07:47:56;;;;;;;12.63;7.27;;;21.70;99.90;;;;;;5092464;28;20189;-68
2022/05/14 07:50:24;;;;;;;13.57;7.63;;;21.90;99.90;;;;;;5080767;28;20171;-69
2022/05/14 07:52:56;;;;;;;11.97;7.50;;;22.00;99.90;;;;;;5093084;28;20678;-69
2022/05/14 07:55:24;;;;;;;15.97;7.10;;;22.00;99.90;;;;;;5092321;28;20206;-68
2022/05/14 07:57:52;;;;;;;11.03;7.83;;;22.00;99.90;;;;;;5091810;28;20227;-69
2022/05/14 08:00:20;;;;;;;12.13;7.03;;;21.90;99.90;;;;;;5092844;28;20187;-67
2022/05/14 08:02:48;;;;;;;10.60;8.00;;;21.80;99.90;;;;;;5092775;28;20178;-69
2022/05/14 08:05:20;;;;;;;10.37;7.77;;;21.70;99.90;;;;;;5091560;28;20188;-69
2022/05/14 08:07:49;;;;;;;19.03;7.30;;;21.60;99.90;;;;;;5093268;28;20183;-67
2022/05/14 08:10:17;;;;;;;8.53;6.70;;;21.50;99.90;;;;;;5092140;28;20900;-68
2022/05/14 08:12:53;;;;;;;15.93;6.73;;;21.40;99.90;;;;;;5092245;28;20186;-67
2022/05/14 08:15:46;;;;;;;13.00;6.73;;;21.40;99.90;;;;;;5090529;28;20309;-69
2022/05/14 08:18:17;;;;;;;8.53;6.47;;;21.30;99.90;;;;;;5092076;28;20233;-68
2022/05/14 08:20:47;;;;;;;15.40;7.27;;;21.20;99.90;;;;;;5092750;28;20179;-67
2022/05/14 08:26:03;;;;;;;20.60;11.63;;;21.10;99.90;;;;;;5092067;28;20182;-70
2022/05/14 08:28:32;;;;;;;16.90;11.07;;;21.10;99.90;;;;;;5092059;28;20187;-67
2022/05/14 08:31:00;;;;;;;10.13;7.63;;;21.00;99.90;;;;;;5090992;28;20190;-67
2022/05/14 08:33:31;;;;;;;16.57;7.90;;;21.00;99.90;;;;;;5089541;28;20259;-68
2022/05/14 08:36:00;;;;;;;12.00;7.77;;;20.90;99.90;;;;;;5092419;28;20580;-68
2022/05/14 08:38:27;;;;;;;15.60;9.13;;;20.90;99.90;;;;;;5092064;28;20190;-68
2022/05/14 08:40:59;;;;;;;19.23;8.80;;;20.80;99.90;;;;;;5092546;28;20206;-68
2022/05/14 08:43:35;;;;;;;16.23;9.70;;;20.80;99.90;;;;;;5092571;28;20228;-68
2022/05/14 08:46:07;;;;;;;22.80;12.67;;;20.70;99.90;;;;;;5092490;28;20191;-66
2022/05/14 08:48:38;;;;;;;16.20;9.30;;;20.70;99.90;;;;;;5092288;28;20190;-68
2022/05/14 08:51:21;;;;;;;16.33;9.37;;;20.70;99.90;;;;;;5095785;28;20273;-69
2022/05/14 08:53:50;;;;;;;19.30;9.70;;;20.70;99.90;;;;;;5097881;28;20186;-69
2022/05/14 08:56:32;;;;;;;15.53;10.00;;;20.60;99.90;;;;;;5097023;28;20214;-69
2022/05/14 08:59:29;;;;;;;17.73;11.13;;;20.60;99.90;;;;;;5077957;28;20186;-69
2022/05/14 09:02:14;;;;;;;14.00;10.03;;;20.50;99.90;;;;;;5077528;28;20264;-68
2022/05/14 09:04:42;;;;;;;16.57;10.40;;;20.40;99.90;;;;;;5078002;28;20525;-69
2022/05/14 09:07:10;;;;;;;20.80;10.17;;;20.40;99.90;;;;;;5077550;28;20238;-70
2022/05/14 09:09:52;;;;;;;12.87;9.10;;;20.50;99.90;;;;;;5096507;28;20267;-67
2022/05/14 09:12:25;;;;;;;19.90;11.17;;;20.50;99.90;;;;;;5094591;28;20633;-68
2022/05/14 09:15:06;;;;;;;18.13;12.20;;;20.40;99.90;;;;;;5094847;28;20213;-68
2022/05/14 09:17:34;;;;;;;22.47;13.90;;;20.30;99.90;;;;;;5077259;28;20544;-70
2022/05/14 09:20:02;;;;;;;25.03;15.07;;;20.20;99.90;;;;;;5077930;28;20230;-68
2022/05/14 09:22:44;;;;;;;22.17;13.73;;;20.20;99.90;;;;;;5088518;28;20649;-69
2022/05/14 09:25:32;;;;;;;23.20;15.37;;;20.20;99.90;;;;;;5093985;28;20203;-68
2022/05/14 09:28:26;;;;;;;27.73;18.33;;;20.10;99.90;;;;;;5097020;28;20174;-70
2022/05/14 09:30:56;;;;;;;25.93;18.17;;;20.10;99.90;;;;;;5089592;28;20191;-70
2022/05/14 09:33:38;;;;;;;23.47;16.47;;;20.10;99.90;;;;;;5098093;28;20227;-69
2022/05/14 09:36:13;;;;;;;26.17;18.43;;;20.00;99.90;;;;;;5098567;28;20238;-69
2022/05/14 09:38:43;;;;;;;27.10;19.27;;;20.00;99.90;;;;;;5105322;28;20167;-68
2022/05/14 09:41:25;;;;;;;26.80;18.80;;;20.00;99.90;;;;;;5099580;28;20183;-69
2022/05/14 09:43:55;;;;;;;33.23;19.77;;;19.90;99.90;;;;;;5098409;28;20174;-70
2022/05/14 09:46:33;;;;;;;32.13;21.23;;;19.90;99.90;;;;;;5097820;28;20191;-68
2022/05/14 09:49:08;;;;;;;27.33;17.97;;;19.90;99.90;;;;;;5097587;28;20191;-69
2022/05/14 09:51:45;;;;;;;28.37;19.07;;;19.90;99.90;;;;;;5096653;28;20183;-70
2022/05/14 09:54:42;;;;;;;29.27;19.87;;;19.90;99.90;;;;;;5097473;28;20273;-70
2022/05/14 09:57:30;;;;;;;33.17;20.27;;;20.00;99.90;;;;;;5098558;28;20230;-69
2022/05/14 10:00:15;;;;;;;34.47;19.90;;;19.90;99.90;;;;;;5097382;28;20584;-68
2022/05/14 10:02:52;;;;;;;24.73;18.57;;;19.80;99.90;;;;;;5096346;28;20182;-70
2022/05/14 10:05:50;;;;;;;32.33;19.73;;;19.80;99.90;;;;;;5096682;28;20178;-69
2022/05/14 10:08:33;;;;;;;32.17;19.93;;;19.80;99.90;;;;;;5098515;28;20663;-68
2022/05/14 10:11:28;;;;;;;25.00;16.73;;;19.70;99.90;;;;;;5097108;28;20648;-71
2022/05/14 10:14:24;;;;;;;23.97;16.13;;;19.70;99.90;;;;;;5098178;28;20175;-69
2022/05/14 10:17:10;;;;;;;24.40;15.97;;;19.70;99.90;;;;;;5097651;28;20304;-70
2022/05/14 10:20:05;;;;;;;26.03;14.00;;;19.70;99.90;;;;;;5097232;28;20232;-69
2022/05/14 10:28:48;;;;;;;23.00;13.27;;;19.80;99.90;;;;;;5096489;28;20186;-68
2022/05/14 10:31:40;;;;;;;18.30;13.87;;;19.80;99.90;;;;;;5096681;28;20190;-68
2022/05/14 10:34:18;;;;;;;20.80;13.90;;;19.70;99.90;;;;;;5096567;28;20210;-68
2022/05/14 10:37:03;;;;;;;26.50;12.87;;;19.80;99.90;;;;;;5097015;28;20211;-69
2022/05/14 10:40:02;;;;;;;22.53;13.57;;;19.90;99.90;;;;;;5097507;28;20175;-68
2022/05/14 10:42:53;;;;;;;19.93;12.80;;;19.90;99.90;;;;;;5094931;28;20176;-69
2022/05/14 10:45:31;;;;;;;18.03;13.30;;;19.90;99.90;;;;;;5095678;28;20173;-69
2022/05/14 10:48:24;;;;;;;23.23;14.13;;;19.70;99.90;;;;;;5093030;28;20175;-68
2022/05/14 10:50:52;;;;;;;20.23;12.87;;;19.70;99.90;;;;;;5094176;28;20641;-69
2022/05/14 10:53:20;;;;;;;27.37;13.07;;;19.60;99.90;;;;;;5095783;28;20269;-69
2022/05/14 10:56:00;;;;;;;19.40;13.30;;;19.50;99.90;;;;;;5095320;28;20740;-69
2022/05/14 10:59:00;;;;;;;20.43;13.20;;;19.50;99.90;;;;;;5093721;28;20301;-68
2022/05/14 11:01:48;;;;;;;22.73;12.87;;;19.40;99.90;;;;;;5093375;28;20183;-68
2022/05/14 11:04:42;;;;;;;21.53;14.43;;;19.30;99.90;;;;;;5095125;28;20177;-68
2022/05/14 11:07:30;;;;;;;24.10;14.03;;;19.30;99.90;;;;;;5096195;28;20168;-69
2022/05/14 11:10:10;;;;;;;18.43;13.27;;;19.20;99.90;;;;;;5096109;28;20172;-69
2022/05/14 11:12:40;;;;;;;19.90;13.53;;;19.20;99.90;;;;;;5095776;28;20274;-69
2022/05/14 11:15:28;;;;;;;23.47;14.50;;;19.10;99.90;;;;;;5095377;28;20224;-68
2022/05/14 11:18:13;;;;;;;20.20;13.60;;;19.10;99.90;;;;;;5095339;28;20179;-69
2022/05/14 11:21:04;;;;;;;16.83;12.10;;;19.00;99.90;;;;;;5095505;28;20250;-69
2022/05/14 11:23:33;;;;;;;25.73;14.27;;;18.90;99.90;;;;;;5094601;28;20181;-69
2022/05/14 11:26:13;;;;;;;24.40;13.40;;;19.00;99.90;;;;;;5095951;28;20171;-69
2022/05/14 11:29:04;;;;;;;18.23;11.87;;;19.00;99.90;;;;;;5095876;28;20652;-68
2022/05/14 11:31:42;;;;;;;21.20;12.53;;;19.00;99.90;;;;;;5091420;28;20197;-69
2022/05/14 11:34:38;;;;;;;21.50;13.67;;;18.90;99.90;;;;;;5094206;28;20171;-68
2022/05/14 11:37:07;;;;;;;22.80;13.43;;;18.80;99.90;;;;;;5092942;28;20229;-69
2022/05/14 11:39:39;;;;;;;21.80;12.30;;;18.90;99.90;;;;;;5095564;28;20197;-67
2022/05/14 11:42:27;;;;;;;20.77;12.87;;;18.80;99.90;;;;;;5095732;28;20586;-68
2022/05/14 11:45:13;;;;;;;21.30;12.80;;;18.90;99.90;;;;;;5095600;28;20179;-70
2022/05/14 11:48:06;;;;;;;15.83;11.33;;;18.80;99.90;;;;;;5095547;28;20177;-68
2022/05/14 11:50:54;;;;;;;28.17;15.20;;;18.80;99.90;;;;;;5095708;28;20180;-68
2022/05/14 11:53:28;;;;;;;25.40;14.17;;;18.80;99.90;;;;;;5091845;28;20193;-68
2022/05/14 11:56:01;;;;;;;24.67;15.30;;;18.70;99.90;;;;;;5095500;28;20211;-68
2022/05/14 11:58:38;;;;;;;18.23;13.10;;;18.70;99.90;;;;;;5095343;28;20203;-70
2022/05/14 12:01:09;;;;;;;26.27;13.70;;;18.60;99.90;;;;;;5096620;28;20309;-70
2022/05/14 12:03:45;;;;;;;16.63;11.83;;;18.60;99.90;;;;;;5096023;28;20581;-69
2022/05/14 12:06:31;;;;;;;21.17;12.93;;;18.60;99.90;;;;;;5095358;28;20661;-70
2022/05/14 12:09:41;;;;;;;19.07;12.67;;;18.60;99.90;;;;;;5096297;28;20671;-70
2022/05/14 12:12:32;;;;;;;23.63;14.10;;;18.50;99.90;;;;;;5075514;28;20187;-70
2022/05/14 12:15:08;;;;;;;21.73;14.67;;;18.50;99.90;;;;;;5095542;28;20171;-69
2022/05/14 12:17:48;;;;;;;21.97;13.13;;;18.50;99.90;;;;;;5095015;28;20181;-70
2022/05/14 12:20:22;;;;;;;22.97;12.77;;;18.40;99.90;;;;;;5094883;28;20628;-70
2022/05/14 12:23:04;;;;;;;17.37;11.40;;;18.40;99.90;;;;;;5093977;28;20183;-69
2022/05/14 12:25:38;;;;;;;19.10;12.23;;;18.30;99.90;;;;;;5095842;28;20171;-70
2022/05/14 12:28:06;;;;;;;17.20;11.47;;;18.30;99.90;;;;;;5098038;28;20238;-69
2022/05/14 12:33:24;;;;;;;15.20;11.00;;;18.20;99.90;;;;;;5098424;28;20664;-69
2022/05/14 12:35:59;;;;;;;18.00;11.47;;;18.30;99.90;;;;;;5097284;28;20217;-68
2022/05/14 12:38:41;;;;;;;19.67;11.57;;;18.30;99.90;;;;;;5097635;28;20198;-69
2022/05/14 12:41:32;;;;;;;17.53;11.80;;;18.20;99.90;;;;;;5099246;28;20270;-69
2022/05/14 12:44:20;;;;;;;17.73;10.73;;;18.10;99.90;;;;;;5098236;28;20174;-69
2022/05/14 12:46:57;;;;;;;17.00;11.83;;;18.10;99.90;;;;;;5098318;28;20187;-70
2022/05/14 12:49:33;;;;;;;15.73;12.30;;;18.10;99.90;;;;;;5097863;28;20172;-69
2022/05/14 12:52:15;;;;;;;14.13;10.80;;;18.10;99.90;;;;;;5097385;28;20211;-70
2022/05/14 12:55:04;;;;;;;15.33;11.63;;;18.10;99.90;;;;;;5097511;28;20191;-69
2022/05/14 12:57:34;;;;;;;23.80;12.87;;;18.10;99.90;;;;;;5096911;28;20242;-69
2022/05/14 13:00:03;;;;;;;19.37;13.10;;;18.10;99.90;;;;;;5097866;28;20171;-69
2022/05/14 13:02:41;;;;;;;17.83;11.97;;;18.10;99.90;;;;;;5097492;28;20171;-69
2022/05/14 13:05:20;;;;;;;28.43;16.77;;;18.00;99.90;;;;;;5097751;28;20179;-68
2022/05/14 13:07:55;;;;;;;25.80;15.93;;;18.00;99.90;;;;;;5097976;28;20167;-70
2022/05/14 13:10:28;;;;;;;20.97;14.50;;;18.00;99.90;;;;;;5098927;28;20640;-70
2022/05/14 13:13:00;;;;;;;22.50;14.60;;;18.10;99.90;;;;;;5098381;28;20167;-68
2022/05/14 13:15:39;;;;;;;22.80;15.43;;;18.00;99.90;;;;;;5098079;28;20251;-69
2022/05/14 13:18:15;;;;;;;30.83;16.30;;;18.00;99.90;;;;;;5098395;28;20178;-69
2022/05/14 13:20:45;;;;;;;22.20;15.37;;;18.00;99.90;;;;;;5098714;28;20690;-68
2022/05/14 13:23:22;;;;;;;27.87;15.50;;;18.00;99.90;;;;;;5096713;28;20189;-68
2022/05/14 13:26:01;;;;;;;21.53;14.73;;;18.00;99.90;;;;;;5098041;28;20167;-69
2022/05/14 13:28:40;;;;;;;29.23;19.00;;;17.90;99.90;;;;;;5098426;28;20185;-68
2022/05/14 13:31:26;;;;;;;27.70;18.13;;;17.90;99.90;;;;;;5095675;28;20190;-69
2022/05/14 13:37:23;;;;;;;25.40;16.93;;;17.80;99.90;;;;;;5052802;28;20287;-69
2022/05/14 13:39:56;;;;;;;24.73;17.70;;;17.80;99.90;;;;;;5053887;28;20187;-69
2022/05/14 13:42:33;;;;;;;32.67;20.67;;;17.70;99.90;;;;;;5079711;28;20210;-69
2022/05/14 13:45:05;;;;;;;23.23;15.67;;;17.70;99.90;;;;;;5096002;28;20179;-69
2022/05/14 13:47:34;;;;;;;30.40;17.87;;;17.70;99.90;;;;;;5095547;28;20185;-69
2022/05/14 13:50:05;;;;;;;26.53;16.60;;;17.70;99.90;;;;;;5095509;28;20656;-69
2022/05/14 13:52:37;;;;;;;23.13;14.67;;;17.70;99.90;;;;;;5095533;28;20282;-69
2022/05/14 13:55:11;;;;;;;23.63;15.07;;;17.60;99.90;;;;;;5095277;28;20546;-69
2022/05/14 13:57:41;;;;;;;24.50;14.80;;;17.60;99.90;;;;;;5095278;28;20307;-69
2022/05/14 14:00:18;;;;;;;21.43;13.37;;;17.60;99.90;;;;;;5095575;28;20167;-69
2022/05/14 14:02:57;;;;;;;21.83;13.37;;;17.60;99.90;;;;;;5095342;28;20179;-68
2022/05/14 14:05:26;;;;;;;22.57;14.73;;;17.50;99.90;;;;;;5093857;28;20584;-69
2022/05/14 14:07:54;;;;;;;19.97;13.83;;;17.60;99.90;;;;;;5094961;28;20549;-67
2022/05/14 14:10:32;;;;;;;21.37;13.33;;;17.60;99.90;;;;;;5094557;28;20171;-68
2022/05/14 14:13:01;;;;;;;20.97;12.23;;;17.60;99.90;;;;;;5095201;28;20182;-67
2022/05/14 14:15:34;;;;;;;17.60;12.03;;;17.60;99.90;;;;;;5095000;28;20211;-68